createdAt,value
2022-10-19T00:13:30.300Z,14.2
2022-10-19T00:28:39.127Z,13.9
2022-10-19T00:43:48.651Z,13.6
2022-10-19T00:58:58.147Z,13.4
2022-10-19T01:14:13.650Z,13.4
2022-10-19T01:29:22.592Z,13.1
2022-10-19T01:44:31.774Z,13.3
2022-10-19T01:59:40.689Z,13.4
2022-10-19T02:14:50.347Z,13.2
2022-10-19T02:29:59.570Z,13
2022-10-19T02:45:09.285Z,13.1
2022-10-19T03:00:18.620Z,13.1
2022-10-19T03:15:30.087Z,13.2
2022-10-19T03:30:39.488Z,13.1
2022-10-19T03:45:48.796Z,13.2
2022-10-19T04:00:58.445Z,13.3
2022-10-19T04:16:08.151Z,13.1
2022-10-19T04:31:17.224Z,13.1
2022-10-19T04:46:26.630Z,13
2022-10-19T05:01:35.928Z,12.7
2022-10-19T05:16:45.369Z,12.6
2022-10-19T05:31:54.642Z,12.6
2022-10-19T05:47:04.121Z,12.6
2022-10-19T06:02:13.560Z,12.6
2022-10-19T06:17:25.430Z,12.7
2022-10-19T06:32:35.154Z,12.7
2022-10-19T06:47:44.602Z,12.7
2022-10-19T07:02:54.447Z,12.8
2022-10-19T07:18:04.393Z,12.8
2022-10-19T07:33:13.586Z,12.8
2022-10-19T07:48:24.468Z,12.8
2022-10-19T08:20:21.588Z,13
2022-10-19T08:35:31.644Z,13
2022-10-19T08:50:41.081Z,13.1
2022-10-19T09:05:51.343Z,13.2
2022-10-19T09:21:00.511Z,13.3
2022-10-19T09:36:15.003Z,13.5
2022-10-19T09:52:01.150Z,13.6
2022-10-19T10:07:10.530Z,13.7
2022-10-19T10:22:20.392Z,13.8
2022-10-19T10:37:30.077Z,13.9
2022-10-19T10:52:39.518Z,14.1
2022-10-19T11:07:49.662Z,14.1
2022-10-19T11:22:59.441Z,14.2
2022-10-19T11:38:20.011Z,14.3
2022-10-19T11:53:40.186Z,14.6
2022-10-19T12:08:50.181Z,14.5
2022-10-19T12:24:06.872Z,15.4
2022-10-19T12:39:16.322Z,15.4
2022-10-19T12:54:25.888Z,15.1
2022-10-19T13:09:35.327Z,15.1
2022-10-19T13:24:46.244Z,17.4
2022-10-19T13:39:56.886Z,18.3
2022-10-19T13:55:05.216Z,17.2
2022-10-19T14:10:14.267Z,16.2
2022-10-19T14:25:25.804Z,15.7
2022-10-19T14:40:34.837Z,15.3
2022-10-19T14:55:43.536Z,14.9
2022-10-19T15:10:53.121Z,14.7
2022-10-19T15:26:02.163Z,14.4
2022-10-19T15:41:11.761Z,14.1
2022-10-19T15:56:20.882Z,14
2022-10-19T16:11:30.014Z,13.9
2022-10-19T16:26:38.884Z,13.7
2022-10-19T16:41:48.358Z,13.6
2022-10-19T16:56:57.623Z,13.3
2022-10-19T17:12:07.090Z,13.3
2022-10-19T17:27:16.674Z,13.4
2022-10-19T17:42:26.505Z,13
2022-10-19T17:57:35.921Z,12.7
2022-10-19T18:12:47.394Z,12.5
2022-10-19T18:27:56.504Z,12.4
2022-10-19T18:43:05.932Z,12.2
2022-10-19T18:58:16.151Z,12.2
2022-10-19T19:13:25.695Z,12.1
2022-10-19T19:28:36.494Z,12
2022-10-19T19:43:56.988Z,12
2022-10-19T19:59:06.247Z,12
2022-10-19T20:14:15.793Z,12.3
2022-10-19T20:29:26.825Z,12.1
2022-10-19T20:44:36.137Z,12
2022-10-19T20:59:45.747Z,12.1
2022-10-19T21:14:55.685Z,12.2
2022-10-19T21:30:04.486Z,12.1
2022-10-19T21:45:30.570Z,12
2022-10-19T22:00:41.742Z,11.8
2022-10-19T22:15:51.192Z,11.6
2022-10-19T22:31:00.879Z,11.4
2022-10-19T22:46:10.098Z,11.5
2022-10-19T23:01:19.551Z,11.4
2022-10-19T23:16:29.879Z,11.1
2022-10-19T23:31:39.241Z,11
2022-10-19T23:46:48.514Z,11
